Time;durP1;ratioP1;P1;durP2;ratioP2;P2;SDS_P1;SDS_P2;PMS_P1;PMS_P2;Temp;Humidity;BMP_temperature;BMP_pressure;BME280_temperature;BME280_humidity;BME280_pressure;Samples;Min_cycle;Max_cycle;Signal;HPM_P1;HPM_P2
2023/06/17 00:01:18;;;;;;;2.50;1.80;;;;;;;22.94;62.52;100399.03;10253312;28;97309;-82
2023/06/17 00:06:23;;;;;;;2.93;1.90;;;;;;;23.03;61.98;100390.13;10252308;28;96750;-82
2023/06/17 00:11:28;;;;;;;3.15;1.85;;;;;;;22.95;62.30;100381.91;10252891;28;96572;-82
2023/06/17 00:16:32;;;;;;;2.63;2.03;;;;;;;22.99;62.36;100381.50;10252727;28;96729;-82
2023/06/17 00:21:38;;;;;;;;;;;;;;;23.00;62.83;100385.03;10251195;28;97054;-81
2023/06/17 00:26:41;;;;;;;2.05;1.60;;;;;;;22.94;62.34;100378.38;10252596;28;97616;-82
2023/06/17 00:31:44;;;;;;;3.43;2.17;;;;;;;23.07;62.17;100367.41;10252343;28;96782;-82
2023/06/17 00:36:49;;;;;;;2.60;1.47;;;;;;;23.25;61.86;100363.09;10251511;28;97006;-81
2023/06/17 00:41:52;;;;;;;2.28;1.63;;;;;;;22.98;62.59;100362.84;10243598;28;97433;-82
2023/06/17 00:46:57;;;;;;;2.92;1.75;;;;;;;22.96;62.90;100351.41;10211420;28;96598;-82
2023/06/17 00:52:04;;;;;;;2.30;1.58;;;;;;;22.94;63.08;100356.09;10211138;28;96846;-82
2023/06/17 00:57:28;;;;;;;2.42;1.92;;;;;;;23.06;62.81;100352.31;10211440;28;96634;-81
2023/06/17 01:02:32;;;;;;;2.45;1.70;;;;;;;23.09;62.70;100349.34;10210433;28;96840;-82
2023/06/17 01:07:46;;;;;;;2.83;1.87;;;;;;;22.80;63.51;100351.09;10210438;28;97807;-81
2023/06/17 01:12:50;;;;;;;4.22;1.83;;;;;;;22.72;63.87;100345.50;10220530;28;96818;-82
2023/06/17 01:17:55;;;;;;;3.08;1.70;;;;;;;22.69;63.78;100353.81;10250143;28;97445;-82
2023/06/17 01:23:01;;;;;;;3.13;1.90;;;;;;;22.39;64.84;100347.47;10250383;28;96608;-82
2023/06/17 01:28:16;;;;;;;2.30;1.75;;;;;;;22.20;65.21;100343.81;10250229;28;96857;-82
2023/06/17 01:33:20;;;;;;;2.70;1.80;;;;;;;22.32;64.62;100335.56;10249406;28;97772;-81
2023/06/17 01:38:29;;;;;;;2.20;1.60;;;;;;;22.32;64.82;100335.56;10249652;28;97063;-82
2023/06/17 01:43:36;;;;;;;2.05;1.70;;;;;;;21.81;66.40;100337.34;10229351;28;96885;-82
2023/06/17 01:48:40;;;;;;;3.38;1.98;;;;;;;21.89;66.25;100329.50;10210666;28;96696;-82
2023/06/17 01:53:43;;;;;;;;;;;;;;;21.94;66.78;100331.75;10209515;28;96806;-82
2023/06/17 01:58:48;;;;;;;3.58;2.17;;;;;;;21.82;66.15;100328.31;10209353;28;96702;-82
2023/06/17 02:03:52;;;;;;;3.42;2.08;;;;;;;21.68;66.28;100325.94;10207851;28;96821;-82
2023/06/17 02:08:55;;;;;;;3.13;2.00;;;;;;;21.69;66.43;100329.47;10208509;28;97249;-82
2023/06/17 02:14:00;;;;;;;3.13;2.20;;;;;;;21.57;66.91;100323.31;10208626;28;98206;-81
2023/06/17 02:19:04;;;;;;;3.08;1.88;;;;;;;21.66;66.70;100330.56;10208393;28;96697;-82
2023/06/17 02:24:08;;;;;;;2.95;1.92;;;;;;;21.55;67.03;100325.28;10245779;28;96721;-81
2023/06/17 02:29:12;;;;;;;5.07;2.50;;;;;;;21.50;67.20;100333.69;10249283;28;97878;-81
2023/06/17 02:34:16;;;;;;;4.22;2.38;;;;;;;21.50;67.66;100322.13;10248214;28;97021;-81
2023/06/17 02:39:19;;;;;;;3.97;2.40;;;;;;;21.45;67.68;100325.19;10225906;28;96689;-82
2023/06/17 02:44:24;;;;;;;2.78;2.00;;;;;;;21.30;68.33;100321.09;10207564;28;96780;-81
2023/06/17 02:49:27;;;;;;;2.63;2.03;;;;;;;21.27;68.34;100329.41;10207347;28;97458;-81
2023/06/17 02:54:30;;;;;;;3.25;2.55;;;;;;;21.22;68.71;100331.59;10215066;28;96781;-81
2023/06/17 02:59:36;;;;;;;5.63;2.33;;;;;;;21.21;68.80;100331.72;10247877;28;98310;-82
2023/06/17 03:04:39;;;;;;;5.03;2.17;;;;;;;21.17;69.06;100338.31;10247745;28;96926;-81
2023/06/17 03:09:43;;;;;;;3.87;2.40;;;;;;;21.22;68.85;100344.13;10247580;28;97084;-82
2023/06/17 03:14:48;;;;;;;3.33;2.42;;;;;;;21.36;68.68;100341.16;10246514;28;97719;-82
2023/06/17 03:19:51;;;;;;;3.38;2.03;;;;;;;21.47;68.69;100333.94;10247602;28;97897;-82
2023/06/17 03:24:55;;;;;;;4.15;2.58;;;;;;;21.40;68.78;100332.75;10252533;28;97408;-82
2023/06/17 03:30:00;;;;;;;2.80;2.05;;;;;;;21.61;68.46;100334.59;10254023;28;96818;-82
2023/06/17 03:35:04;;;;;;;4.55;2.88;;;;;;;21.69;68.71;100326.78;10253404;28;96747;-82
2023/06/17 03:40:09;;;;;;;3.45;2.75;;;;;;;21.67;68.74;100329.59;10254054;28;97820;-82
2023/06/17 03:45:13;;;;;;;3.88;3.10;;;;;;;21.63;68.92;100328.16;10224984;28;97749;-82
2023/06/17 03:50:17;;;;;;;5.78;2.95;;;;;;;21.77;68.43;100319.81;10253918;28;97450;-82
2023/06/17 03:55:22;;;;;;;4.37;2.60;;;;;;;21.68;68.36;100314.38;10253906;28;97955;-82
2023/06/17 04:00:28;;;;;;;4.68;3.10;;;;;;;21.83;68.21;100311.25;10231520;28;96762;-82
2023/06/17 04:05:33;;;;;;;5.13;3.03;;;;;;;21.90;67.94;100304.38;10245150;28;97782;-82
2023/06/17 04:10:36;;;;;;;3.20;2.50;;;;;;;21.91;67.90;100307.91;10252769;28;96950;-82
2023/06/17 04:15:41;;;;;;;4.03;2.70;;;;;;;22.07;67.80;100301.13;10252926;28;96771;-82
2023/06/17 04:20:45;;;;;;;3.83;2.83;;;;;;;22.15;67.46;100287.06;10234092;28;97259;-82
2023/06/17 04:25:50;;;;;;;4.93;2.78;;;;;;;22.03;67.56;100293.50;10212353;28;97674;-82
2023/06/17 04:30:59;;;;;;;4.88;2.65;;;;;;;21.96;67.91;100289.63;10212103;28;97971;-82
2023/06/17 04:36:08;;;;;;;3.97;2.60;;;;;;;21.94;68.08;100291.56;10210583;28;96789;-82
2023/06/17 04:41:12;;;;;;;3.45;2.72;;;;;;;21.75;68.24;100291.44;10211809;28;97045;-82
2023/06/17 04:46:17;;;;;;;4.20;2.70;;;;;;;21.85;67.95;100297.75;10211246;28;96840;-82
2023/06/17 04:51:21;;;;;;;3.78;2.30;;;;;;;21.71;67.95;100290.84;10211457;28;98028;-82
2023/06/17 04:56:26;;;;;;;4.53;2.70;;;;;;;21.80;67.80;100297.25;10211698;28;97276;-82
2023/06/17 05:01:31;;;;;;;4.53;2.70;;;;;;;21.74;67.86;100284.41;10210918;28;96756;-82
2023/06/17 05:06:35;;;;;;;4.13;3.00;;;;;;;21.62;68.31;100290.78;10210200;28;96870;-82
2023/06/17 05:11:38;;;;;;;4.97;2.70;;;;;;;21.69;68.11;100287.47;10211089;28;97183;-82
2023/06/17 05:16:43;;;;;;;4.70;3.00;;;;;;;21.59;68.15;100301.78;10209926;28;97492;-82
2023/06/17 05:21:46;;;;;;;4.35;2.60;;;;;;;21.68;67.98;100296.47;10209650;28;96824;-82
2023/06/17 05:26:49;;;;;;;3.47;2.70;;;;;;;21.74;68.12;100295.13;10211333;28;97234;-82
2023/06/17 05:31:54;;;;;;;5.22;2.83;;;;;;;21.79;68.07;100296.44;10249765;28;96878;-82
2023/06/17 05:36:57;;;;;;;4.47;2.72;;;;;;;21.95;67.95;100304.84;10249104;28;97213;-82
2023/06/17 05:42:01;;;;;;;4.90;3.30;;;;;;;21.96;67.66;100311.91;10241473;28;97236;-82
2023/06/17 05:47:06;;;;;;;3.78;2.72;;;;;;;21.96;67.66;100311.91;10237235;28;96822;-82
2023/06/17 05:52:10;;;;;;;5.00;2.95;;;;;;;21.91;67.56;100316.81;10249352;28;97204;-82
2023/06/17 05:57:14;;;;;;;5.20;3.10;;;;;;;21.89;67.86;100310.72;10249377;28;97217;-82
2023/06/17 06:02:18;;;;;;;7.10;4.47;;;;;;;21.87;68.19;100319.88;10249256;28;96647;-82
2023/06/17 06:07:22;;;;;;;5.78;4.32;;;;;;;21.99;67.46;100319.72;10225735;22;97156;-82
2023/06/17 06:12:25;;;;;;;6.90;4.60;;;;;;;22.00;67.45;100318.75;10204453;28;96992;-82
2023/06/17 06:17:30;;;;;;;6.07;4.20;;;;;;;21.96;67.66;100321.78;10207579;28;97793;-82
2023/06/17 06:22:34;;;;;;;6.72;4.35;;;;;;;21.84;68.22;100326.34;10195160;28;97591;-82
2023/06/17 06:27:37;;;;;;;5.97;4.05;;;;;;;21.80;68.39;100332.94;10209989;28;96832;-82
2023/06/17 06:32:42;;;;;;;6.18;4.40;;;;;;;21.70;68.47;100336.53;10210093;28;96750;-82
2023/06/17 06:37:45;;;;;;;6.43;4.03;;;;;;;21.73;68.40;100333.59;10236422;28;96767;-82
2023/06/17 06:42:48;;;;;;;5.30;4.10;;;;;;;21.80;68.46;100332.94;10249950;28;97336;-82
2023/06/17 06:47:53;;;;;;;7.45;4.38;;;;;;;21.99;67.59;100335.78;10250134;28;96721;-82
2023/06/17 06:52:56;;;;;;;6.45;4.07;;;;;;;22.00;67.85;100332.16;10250075;28;96831;-82
2023/06/17 06:58:00;;;;;;;6.57;4.70;;;;;;;22.04;67.78;100325.53;10254102;28;96536;-82
2023/06/17 07:03:04;;;;;;;7.30;4.40;;;;;;;22.04;67.71;100333.56;10220508;28;96718;-82
2023/06/17 07:08:08;;;;;;;7.25;4.65;;;;;;;22.04;67.97;100330.88;10214262;28;96813;-82
2023/06/17 07:13:11;;;;;;;6.63;4.68;;;;;;;22.11;67.80;100326.69;10216811;28;96839;-82
2023/06/17 07:18:16;;;;;;;7.07;4.38;;;;;;;22.07;68.14;100337.81;10215645;28;97261;-82
2023/06/17 07:23:19;;;;;;;7.75;5.20;;;;;;;22.20;67.86;100338.47;10215772;28;96980;-82
2023/06/17 07:28:23;;;;;;;7.80;5.20;;;;;;;22.08;68.27;100334.16;10215989;28;96855;-82
2023/06/17 07:33:28;;;;;;;6.77;4.90;;;;;;;21.98;68.35;100322.50;10215670;28;96833;-82
2023/06/17 07:38:32;;;;;;;6.40;4.80;;;;;;;22.10;68.28;100321.47;10215294;28;96769;-82
2023/06/17 07:43:35;;;;;;;;;;;;;;;22.24;68.22;100323.81;10216782;28;96874;-82
2023/06/17 07:48:40;;;;;;;6.50;4.57;;;;;;;22.20;67.82;100325.06;10215369;28;96756;-82
2023/06/17 07:53:44;;;;;;;6.20;4.55;;;;;;;22.22;67.87;100332.00;10214926;28;96642;-82
2023/06/17 07:58:47;;;;;;;6.63;4.63;;;;;;;22.30;67.94;100334.84;10213765;28;96778;-82
2023/06/17 08:03:52;;;;;;;5.83;4.70;;;;;;;22.07;68.62;100346.69;10214511;28;96716;-82
2023/06/17 08:08:55;;;;;;;5.72;4.35;;;;;;;22.31;67.63;100354.47;10213445;28;96740;-82
2023/06/17 08:13:59;;;;;;;6.73;4.70;;;;;;;22.22;68.04;100350.75;10214364;28;97051;-82
2023/06/17 08:19:04;;;;;;;6.67;4.30;;;;;;;22.50;67.54;100351.91;10214390;28;96618;-82
2023/06/17 08:24:22;;;;;;;6.40;4.45;;;;;;;22.66;67.08;100354.09;10213530;28;96757;-82
2023/06/17 08:29:26;;;;;;;6.32;4.35;;;;;;;23.00;66.18;100345.63;10213861;28;96659;-82
2023/06/17 08:34:32;;;;;;;7.03;4.03;;;;;;;23.27;65.53;100340.47;10214665;28;97056;-82
2023/06/17 08:39:39;;;;;;;7.40;3.90;;;;;;;23.87;64.17;100330.47;10213463;28;97151;-82
2023/06/17 08:44:44;;;;;;;4.40;3.50;;;;;;;23.98;64.12;100316.91;10213358;28;96949;-82
2023/06/17 08:49:49;;;;;;;5.68;3.95;;;;;;;24.01;63.83;100321.97;10212051;28;96801;-82
2023/06/17 08:54:54;;;;;;;5.03;3.72;;;;;;;23.83;64.24;100319.16;10213481;28;96739;-82
2023/06/17 08:59:57;;;;;;;5.10;3.47;;;;;;;24.39;62.98;100305.78;10212695;28;96845;-81
2023/06/17 09:05:02;;;;;;;6.30;4.20;;;;;;;24.04;63.20;100300.16;10212031;28;96788;-82
2023/06/17 09:10:07;;;;;;;5.70;4.13;;;;;;;24.46;62.39;100304.19;10213094;28;96723;-82
2023/06/17 09:15:16;;;;;;;5.53;3.80;;;;;;;24.60;61.91;100298.34;10212261;28;96767;-82
2023/06/17 09:20:40;;;;;;;6.20;4.72;;;;;;;24.73;61.85;100302.38;10211895;28;96753;-82
2023/06/17 09:25:43;;;;;;;6.10;3.80;;;;;;;24.64;62.27;100300.56;10212871;28;96737;-82
2023/06/17 09:30:53;;;;;;;5.43;4.13;;;;;;;24.51;62.22;100301.91;10212210;28;96648;-82
2023/06/17 09:36:03;;;;;;;5.97;4.45;;;;;;;24.45;62.05;100299.78;10211510;28;96870;-82
2023/06/17 09:41:07;;;;;;;5.10;3.85;;;;;;;24.76;61.41;100294.00;10210757;28;97012;-82
2023/06/17 09:46:11;;;;;;;5.03;3.72;;;;;;;25.17;61.00;100294.50;10211692;28;96908;-82
2023/06/17 09:51:20;;;;;;;5.18;4.22;;;;;;;25.45;59.98;100296.97;10211516;28;96680;-82
2023/06/17 09:56:24;;;;;;;5.82;4.60;;;;;;;25.56;59.57;100295.88;10211223;28;97246;-82
2023/06/17 10:01:30;;;;;;;6.03;4.30;;;;;;;25.60;59.45;100289.19;10210909;28;96802;-82
2023/06/17 10:06:37;;;;;;;6.15;4.13;;;;;;;25.88;59.06;100294.31;10210382;28;96942;-82
2023/06/17 10:11:45;;;;;;;4.72;3.97;;;;;;;25.61;59.21;100288.16;10210817;28;96760;-82
2023/06/17 10:16:49;;;;;;;4.57;3.83;;;;;;;25.67;59.19;100285.72;10211734;28;97294;-82
2023/06/17 10:21:57;;;;;;;5.97;3.95;;;;;;;25.98;58.57;100266.44;10210411;28;96772;-82
2023/06/17 10:27:04;;;;;;;6.28;4.40;;;;;;;26.05;57.82;100270.19;10210151;28;97094;-82
2023/06/17 10:32:19;;;;;;;5.85;3.90;;;;;;;26.35;58.60;100275.09;10208557;28;96787;-82
2023/06/17 10:37:43;;;;;;;5.68;3.83;;;;;;;26.69;57.18;100278.66;10169654;28;96738;-82
2023/06/17 10:42:54;;;;;;;4.55;3.65;;;;;;;26.69;57.47;100262.47;10170078;28;96699;-82
2023/06/17 10:48:14;;;;;;;5.25;4.13;;;;;;;26.57;57.12;100261.06;10169465;28;97734;-82
2023/06/17 10:53:25;;;;;;;5.78;4.38;;;;;;;26.60;56.63;100245.38;10201468;28;97070;-81
2023/06/17 10:58:33;;;;;;;5.18;4.20;;;;;;;26.65;57.29;100248.44;10209332;28;96724;-82
2023/06/17 11:03:37;;;;;;;5.90;3.97;;;;;;;26.95;56.25;100237.06;10209071;28;96841;-82
2023/06/17 11:08:42;;;;;;;5.32;3.63;;;;;;;27.19;56.06;100222.78;10210388;28;96767;-82
2023/06/17 11:13:47;;;;;;;5.53;4.15;;;;;;;27.25;55.86;100213.16;10209022;28;96753;-82
2023/06/17 11:18:50;;;;;;;5.65;3.97;;;;;;;27.47;55.13;100209.78;10209046;28;96683;-82
2023/06/17 11:23:55;;;;;;;4.78;4.22;;;;;;;27.33;54.83;100211.31;10208006;28;97705;-82
2023/06/17 11:28:58;;;;;;;5.85;3.97;;;;;;;27.51;54.38;100200.34;10198854;28;96956;-78
2023/06/17 11:34:02;;;;;;;5.03;3.83;;;;;;;27.59;53.81;100193.06;10202098;28;96881;-75
2023/06/17 11:39:09;;;;;;;6.30;3.50;;;;;;;27.99;53.83;100205.69;10202044;28;97145;-73
2023/06/17 11:44:13;;;;;;;5.93;3.90;;;;;;;28.04;52.71;100208.72;10210823;28;96687;-74
2023/06/17 11:49:17;;;;;;;5.28;3.40;;;;;;;28.12;51.85;100197.88;10209547;28;98799;-73
2023/06/17 11:54:26;;;;;;;4.95;3.47;;;;;;;28.44;50.78;100200.50;10211481;28;97602;-73
2023/06/17 11:59:31;;;;;;;5.30;3.45;;;;;;;28.44;51.19;100195.09;10208656;28;97656;-73
2023/06/17 12:04:36;;;;;;;6.15;3.90;;;;;;;28.86;49.92;100190.09;10211426;28;99041;-73
2023/06/17 12:09:50;;;;;;;4.85;3.70;;;;;;;28.85;49.21;100185.72;10211355;28;98807;-74
2023/06/17 12:14:58;;;;;;;5.88;3.97;;;;;;;29.00;49.44;100181.25;10211544;28;98665;-73
2023/06/17 12:20:21;;;;;;;4.88;4.05;;;;;;;29.00;49.55;100178.53;10208509;28;97112;-73
2023/06/17 12:25:25;;;;;;;4.07;3.55;;;;;;;28.96;49.80;100179.09;10209157;28;98637;-74
2023/06/17 12:30:29;;;;;;;4.78;4.05;;;;;;;29.05;49.31;100172.59;10208499;28;96835;-74
2023/06/17 12:35:33;;;;;;;5.53;3.60;;;;;;;29.26;49.78;100178.16;10206786;28;97445;-74
2023/06/17 12:40:37;;;;;;;5.47;3.20;;;;;;;29.35;49.29;100168.13;10209550;28;97837;-74
2023/06/17 12:45:41;;;;;;;4.80;3.10;;;;;;;29.48;49.25;100162.91;10205318;28;96883;-74
2023/06/17 12:50:45;;;;;;;3.30;3.00;;;;;;;29.52;49.08;100164.28;10218701;28;96929;-73
2023/06/17 12:56:07;;;;;;;6.22;3.47;;;;;;;29.67;49.21;100151.56;10208365;28;96647;-74
2023/06/17 13:01:10;;;;;;;4.78;3.22;;;;;;;29.77;49.40;100154.84;10207788;28;96858;-75
2023/06/17 13:06:14;;;;;;;;;;;;;;;29.64;48.42;100149.22;10211301;28;96854;-74
2023/06/17 13:11:19;;;;;;;4.65;3.28;;;;;;;30.12;48.81;100146.84;10211758;28;97680;-75
2023/06/17 13:16:23;;;;;;;5.25;3.03;;;;;;;30.13;48.23;100134.09;10204893;28;97797;-76
2023/06/17 13:21:26;;;;;;;3.08;2.70;;;;;;;29.63;48.94;100140.25;10206270;28;96805;-75
2023/06/17 13:26:32;;;;;;;;;;;;;;;29.71;48.12;100137.44;10212560;28;97182;-75
2023/06/17 13:31:36;;;;;;;4.22;2.92;;;;;;;29.72;48.82;100133.72;10210875;28;98768;-76
2023/06/17 13:36:42;;;;;;;4.80;2.80;;;;;;;29.98;48.08;100138.66;10211999;28;96789;-75
2023/06/17 13:41:47;;;;;;;4.03;2.60;;;;;;;29.86;47.72;100132.03;10211929;28;96851;-75
2023/06/17 13:46:50;;;;;;;2.58;2.17;;;;;;;29.75;47.65;100135.19;10210073;28;97340;-75
2023/06/17 13:51:53;;;;;;;2.80;2.05;;;;;;;30.00;47.35;100125.75;10210925;28;96898;-76
2023/06/17 13:56:58;;;;;;;2.60;1.73;;;;;;;29.93;47.11;100122.97;10209097;28;97130;-76
2023/06/17 14:02:01;;;;;;;3.05;2.03;;;;;;;29.02;47.90;100124.16;10210933;28;97545;-76
2023/06/17 14:07:06;;;;;;;;;;;;;;;28.86;49.02;100124.28;10212374;28;96883;-75
2023/06/17 14:12:11;;;;;;;2.97;2.15;;;;;;;28.85;48.14;100122.56;10171712;28;96726;-75
2023/06/17 14:17:14;;;;;;;2.67;2.33;;;;;;;29.28;48.07;100126.50;10201988;28;97036;-75
2023/06/17 14:22:17;;;;;;;;;;;;;;;30.04;46.30;100127.91;10210554;28;96950;-75
2023/06/17 14:27:37;;;;;;;4.53;3.07;;;;;;;29.97;44.44;100118.00;10210537;28;97054;-76
2023/06/17 14:32:41;;;;;;;3.75;2.75;;;;;;;29.93;45.91;100113.97;10211704;28;96889;-77
2023/06/17 14:37:46;;;;;;;4.10;2.70;;;;;;;29.46;47.71;100108.88;10209221;28;96780;-76
2023/06/17 14:42:51;;;;;;;5.22;3.10;;;;;;;30.00;47.38;100109.47;10210145;28;96893;-77
2023/06/17 14:47:54;;;;;;;3.83;2.92;;;;;;;29.76;47.85;100102.44;10208830;28;96858;-76
2023/06/17 14:52:57;;;;;;;;;;;;;;;29.78;48.16;100110.44;10209853;28;99163;-77
2023/06/17 14:58:20;;;;;;;5.30;3.30;;;;;;;29.88;47.64;100106.38;10206599;28;96958;-77
2023/06/17 15:03:23;;;;;;;4.57;3.30;;;;;;;29.90;47.61;100101.59;10209918;28;96881;-77
2023/06/17 15:08:26;;;;;;;;;;;;;;;29.77;47.02;100097.88;10209241;28;97537;-77
2023/06/17 15:13:30;;;;;;;5.82;3.60;;;;;;;29.95;46.03;100095.63;10204197;28;99059;-79
2023/06/17 15:18:36;;;;;;;4.85;3.53;;;;;;;29.86;45.67;100092.19;10208279;28;98444;-80
2023/06/17 15:23:39;;;;;;;5.22;3.42;;;;;;;29.67;46.00;100083.75;10215857;28;96811;-79
2023/06/17 15:28:43;;;;;;;;;;;;;;;29.61;46.00;100081.78;10211979;28;99469;-79
2023/06/17 15:33:47;;;;;;;5.85;3.78;;;;;;;29.86;46.06;100078.63;10213605;28;96893;-79
2023/06/17 15:38:50;;;;;;;5.32;3.53;;;;;;;29.80;45.75;100081.22;10212473;28;97070;-79
2023/06/17 15:43:57;;;;;;;;;;;;;;;29.74;45.41;100068.41;10209208;28;96876;-79
2023/06/17 15:49:00;;;;;;;5.45;3.60;;;;;;;29.44;45.88;100063.97;10211880;28;96829;-79
2023/06/17 15:54:04;;;;;;;7.15;3.78;;;;;;;29.39;46.02;100071.81;10212086;28;96813;-79
2023/06/17 15:59:08;;;;;;;6.35;3.75;;;;;;;29.26;45.81;100063.50;10215454;28;98035;-78
2023/06/17 16:04:33;;;;;;;6.03;3.67;;;;;;;28.89;45.73;100061.59;10201043;28;97481;-79
2023/06/17 16:09:38;;;;;;;4.40;3.35;;;;;;;28.82;46.05;100066.91;10188505;28;97171;-79
2023/06/17 16:14:44;;;;;;;5.88;3.80;;;;;;;28.83;45.92;100068.56;10195642;28;98071;-79
2023/06/17 16:19:47;;;;;;;6.03;3.65;;;;;;;28.48;47.15;100055.63;10211999;28;96876;-81
2023/06/17 16:24:50;;;;;;;5.32;3.70;;;;;;;28.18;47.55;100056.47;10216139;28;96927;-78
2023/06/17 16:29:55;;;;;;;5.05;3.22;;;;;;;27.88;47.59;100062.69;10222091;28;97148;-79
2023/06/17 16:34:58;;;;;;;17.27;10.73;;;;;;;28.18;47.23;100051.06;10220912;28;97515;-78
2023/06/17 16:40:04;;;;;;;350.10;238.63;;;;;;;28.23;47.56;100062.19;10219755;28;97025;-79
2023/06/17 16:45:10;;;;;;;452.50;331.35;;;;;;;28.27;47.30;100057.25;10208804;28;96608;-79
2023/06/17 16:50:13;;;;;;;55.05;43.90;;;;;;;27.97;47.32;100056.22;10228070;28;96973;-77
2023/06/17 16:55:17;;;;;;;10.85;9.05;;;;;;;27.73;47.93;100049.06;10209381;28;96992;-80
2023/06/17 17:00:26;;;;;;;8.77;7.07;;;;;;;27.99;47.56;100043.38;10218712;28;97114;-78
2023/06/17 17:05:32;;;;;;;7.63;5.32;;;;;;;27.92;47.64;100036.97;10237035;28;96763;-77
2023/06/17 17:10:35;;;;;;;6.43;4.30;;;;;;;27.78;46.98;100038.56;10224820;28;97023;-80
2023/06/17 17:15:40;;;;;;;6.72;4.47;;;;;;;27.76;46.53;100034.34;10219665;28;96804;-77
2023/06/17 17:20:43;;;;;;;7.75;4.50;;;;;;;27.46;46.40;100045.94;10219325;28;97658;-76
2023/06/17 17:25:47;;;;;;;7.57;4.28;;;;;;;27.62;45.93;100054.81;10218291;28;97411;-82
2023/06/17 17:30:51;;;;;;;;;;;;;;;27.76;45.28;100056.84;10220359;28;97101;-79
2023/06/17 17:35:54;;;;;;;5.90;3.53;;;;;;;27.70;45.77;100045.88;10218901;28;96832;-77
2023/06/17 17:40:57;;;;;;;5.07;3.75;;;;;;;27.69;46.20;100050.44;10220022;28;96772;-77
2023/06/17 17:46:03;;;;;;;6.03;4.05;;;;;;;27.53;46.61;100047.75;10216042;28;96867;-77
2023/06/17 17:51:07;;;;;;;132.75;78.20;;;;;;;27.30;47.10;100045.97;10218014;28;97133;-77
2023/06/17 17:56:10;;;;;;;116.00;80.88;;;;;;;27.27;47.45;100049.81;10219015;28;96912;-77
2023/06/17 18:01:15;;;;;;;57.80;43.60;;;;;;;27.06;48.03;100046.81;10217363;28;96935;-78
2023/06/17 18:06:19;;;;;;;28.20;17.33;;;;;;;26.84;48.99;100045.63;10217229;28;97116;-77
2023/06/17 18:11:22;;;;;;;7.50;5.77;;;;;;;26.55;49.02;100048.00;10219357;28;96732;-78
2023/06/17 18:16:27;;;;;;;11.73;4.25;;;;;;;26.55;48.66;100045.28;10229945;28;96874;-77
2023/06/17 18:21:30;;;;;;;7.15;4.50;;;;;;;26.50;48.67;100057.59;10213224;28;96981;-77
2023/06/17 18:26:34;;;;;;;8.80;4.40;;;;;;;26.48;48.82;100054.22;10219857;28;96721;-76
2023/06/17 18:31:38;;;;;;;5.93;3.83;;;;;;;26.39;48.80;100060.59;10220695;28;97069;-75
2023/06/17 18:36:41;;;;;;;5.35;3.88;;;;;;;26.27;48.82;100059.19;10221554;22;100602;-76
2023/06/17 18:41:46;;;;;;;5.97;3.90;;;;;;;25.95;50.22;100062.66;10217029;28;96733;-77
2023/06/17 18:46:51;;;;;;;4.57;3.17;;;;;;;25.76;50.65;100063.72;10216731;28;96766;-76
2023/06/17 18:51:54;;;;;;;5.15;3.80;;;;;;;25.65;51.83;100072.09;10217685;28;96832;-76
2023/06/17 18:56:57;;;;;;;4.83;3.67;;;;;;;25.37;52.57;100078.66;10222726;28;96840;-76
2023/06/17 19:02:03;;;;;;;6.23;3.97;;;;;;;25.15;53.36;100095.34;10222214;28;96937;-76
2023/06/17 19:07:06;;;;;;;7.00;3.53;;;;;;;25.19;53.23;100094.00;10223458;28;96741;-77
2023/06/17 19:12:10;;;;;;;6.07;3.67;;;;;;;25.07;53.51;100114.13;10222621;28;96888;-75
2023/06/17 19:17:15;;;;;;;5.72;3.97;;;;;;;25.06;53.90;100114.28;10223174;28;97055;-76
2023/06/17 19:22:18;;;;;;;5.78;3.78;;;;;;;24.90;54.23;100122.16;10218661;28;98484;-76
2023/06/17 19:27:21;;;;;;;5.43;3.67;;;;;;;24.81;54.47;100134.72;10217282;28;97317;-76
2023/06/17 19:32:26;;;;;;;7.87;4.07;;;;;;;24.54;55.45;100130.25;10214328;28;97006;-76
2023/06/17 19:37:30;;;;;;;6.53;3.83;;;;;;;24.44;55.34;100129.47;10219515;28;96828;-76
2023/06/17 19:42:33;;;;;;;6.03;3.63;;;;;;;24.41;55.69;100132.44;10219056;28;98783;-76
2023/06/17 19:47:38;;;;;;;6.97;4.43;;;;;;;24.34;55.84;100141.28;10212936;28;98801;-76
2023/06/17 19:52:41;;;;;;;5.03;3.78;;;;;;;24.37;56.12;100147.22;10211198;28;96810;-75
2023/06/17 19:57:44;;;;;;;6.10;3.87;;;;;;;24.45;56.20;100143.75;10217180;28;97383;-80
2023/06/17 20:02:51;;;;;;;6.28;3.58;;;;;;;24.40;56.37;100152.28;10219105;28;98706;-77
2023/06/17 20:07:54;;;;;;;6.72;3.80;;;;;;;24.43;56.27;100146.59;10218867;28;97307;-75
2023/06/17 20:12:58;;;;;;;6.73;4.03;;;;;;;24.32;56.67;100146.81;10221773;28;98204;-75
2023/06/17 20:18:03;;;;;;;6.00;3.73;;;;;;;24.01;57.39;100160.66;10220735;28;96904;-76
2023/06/17 20:23:06;;;;;;;7.57;4.07;;;;;;;24.16;57.43;100165.41;10220043;28;96789;-74
2023/06/17 20:28:09;;;;;;;5.53;4.07;;;;;;;24.07;57.78;100165.44;10223557;28;96877;-76
2023/06/17 20:33:14;;;;;;;6.82;4.13;;;;;;;23.99;58.31;100166.19;10209063;28;98901;-76
2023/06/17 20:38:17;;;;;;;7.13;4.45;;;;;;;23.84;58.70;100175.72;10211707;28;98978;-78
2023/06/17 20:43:20;;;;;;;6.03;3.90;;;;;;;23.75;58.92;100184.69;10210733;28;96807;-74
2023/06/17 20:48:25;;;;;;;6.40;3.77;;;;;;;23.75;59.04;100181.13;10216448;28;96856;-75
2023/06/17 20:53:28;;;;;;;7.60;4.47;;;;;;;23.74;58.95;100180.28;10213242;28;96801;-75
2023/06/17 20:58:31;;;;;;;7.63;4.83;;;;;;;23.66;59.34;100193.59;10212852;28;96921;-74
2023/06/17 21:03:36;;;;;;;7.57;4.70;;;;;;;23.58;59.66;100183.56;10212961;28;96854;-75
2023/06/17 21:08:39;;;;;;;6.72;4.70;;;;;;;23.54;59.85;100192.94;10189435;28;96804;-75
2023/06/17 21:13:43;;;;;;;8.55;4.55;;;;;;;23.50;60.10;100191.47;10181072;28;96846;-75
2023/06/17 21:18:47;;;;;;;6.53;5.00;;;;;;;23.23;60.92;100203.94;10189077;28;97241;-75
2023/06/17 21:23:50;;;;;;;8.73;5.40;;;;;;;22.97;61.62;100198.31;10208285;28;97122;-75
2023/06/17 21:28:55;;;;;;;8.05;4.82;;;;;;;22.86;61.86;100200.25;10209129;28;96787;-75
2023/06/17 21:33:59;;;;;;;;;;;;;;;22.87;62.42;100194.72;10207895;28;97758;-75
2023/06/17 21:39:03;;;;;;;9.02;5.15;;;;;;;22.95;61.57;100196.72;10212444;28;97513;-75
2023/06/17 21:44:24;;;;;;;6.75;4.22;;;;;;;22.89;61.96;100195.44;10207495;28;99340;-75
2023/06/17 21:49:29;;;;;;;7.90;4.90;;;;;;;22.69;62.40;100192.84;10204679;28;99047;-74
2023/06/17 21:54:32;;;;;;;7.97;4.90;;;;;;;22.66;62.44;100194.00;10206030;28;97032;-74
2023/06/17 21:59:35;;;;;;;9.03;5.40;;;;;;;22.71;62.71;100193.56;10203323;28;97293;-74
2023/06/17 22:04:40;;;;;;;7.88;4.72;;;;;;;22.81;62.46;100189.09;10204709;28;98962;-75
2023/06/17 22:09:43;;;;;;;8.40;4.45;;;;;;;22.70;62.42;100186.50;10204109;28;97190;-88
2023/06/17 22:14:47;;;;;;;7.70;4.95;;;;;;;22.77;62.47;100176.88;10209256;28;98502;-87
2023/06/17 22:19:51;;;;;;;6.90;4.07;;;;;;;22.71;62.51;100178.31;10209180;28;96883;-88
2023/06/17 22:24:55;;;;;;;7.50;4.53;;;;;;;22.61;62.58;100182.81;10205589;28;99289;-89
2023/06/17 22:29:58;;;;;;;7.57;4.60;;;;;;;22.58;62.99;100181.25;10225817;28;96815;-88
2023/06/17 22:35:03;;;;;;;7.00;4.63;;;;;;;22.57;62.95;100176.03;10228791;28;98999;-89
2023/06/17 22:40:08;;;;;;;7.80;5.05;;;;;;;22.50;63.38;100167.69;10205189;28;97420;-89
2023/06/17 22:45:12;;;;;;;6.78;4.88;;;;;;;22.42;63.88;100163.97;10211539;28;96817;-88
2023/06/17 22:50:16;;;;;;;9.02;5.25;;;;;;;22.25;64.02;100170.00;10213106;28;96878;-91
2023/06/17 22:55:21;;;;;;;7.97;4.63;;;;;;;22.01;64.61;100167.69;10210800;28;96821;-89
2023/06/17 23:00:41;;;;;;;7.68;4.68;;;;;;;21.87;64.42;100169.81;10209964;28;96801;-91
2023/06/17 23:05:46;;;;;;;8.02;4.57;;;;;;;21.97;64.40;100160.84;10200896;28;96959;-89
2023/06/17 23:10:49;;;;;;;9.02;4.47;;;;;;;21.64;65.45;100152.25;10206170;28;97874;-90
2023/06/17 23:16:10;;;;;;;6.70;4.35;;;;;;;21.87;64.52;100154.59;10205847;28;97283;-89
2023/06/17 23:21:15;;;;;;;8.13;4.93;;;;;;;21.89;64.77;100154.47;10221318;28;97096;-89
2023/06/17 23:26:18;;;;;;;6.63;4.20;;;;;;;21.89;64.48;100144.59;10205956;28;96826;-88